createdAt,value
2019-02-04T00:00:32.422Z,0
2019-02-04T00:01:33.837Z,0
2019-02-04T00:02:35.248Z,0
2019-02-04T00:03:36.627Z,0
2019-02-04T00:04:38.034Z,0
2019-02-04T00:05:39.436Z,0
2019-02-04T00:06:40.861Z,0
2019-02-04T00:07:42.283Z,0
2019-02-04T00:08:43.697Z,0
2019-02-04T00:09:45.107Z,0
2019-02-04T00:10:46.515Z,0
2019-02-04T00:11:47.929Z,0
2019-02-04T00:12:49.327Z,0
2019-02-04T00:13:50.701Z,0
2019-02-04T00:14:52.106Z,0
2019-02-04T00:15:53.521Z,0
2019-02-04T00:16:54.927Z,0
2019-02-04T00:17:56.329Z,0
2019-02-04T00:18:57.740Z,0
2019-02-04T00:19:59.159Z,0
2019-02-04T00:21:00.554Z,0
2019-02-04T00:22:01.961Z,0
2019-02-04T00:23:03.315Z,0
2019-02-04T00:24:04.710Z,0
2019-02-04T00:25:06.109Z,0
2019-02-04T00:26:07.518Z,0
2019-02-04T00:27:08.938Z,0
2019-02-04T00:28:10.336Z,0
2019-02-04T00:29:11.745Z,0
2019-02-04T00:30:13.180Z,0
2019-02-04T00:31:14.568Z,0
2019-02-04T00:32:15.969Z,0
2019-02-04T00:33:17.328Z,0
2019-02-04T00:34:18.730Z,0
2019-02-04T00:35:20.128Z,0
2019-02-04T00:36:21.550Z,0
2019-02-04T00:37:22.946Z,0
2019-02-04T00:38:24.337Z,0
2019-02-04T00:39:25.772Z,0
2019-02-04T00:40:27.174Z,0
2019-02-04T00:41:28.568Z,0
2019-02-04T00:42:29.944Z,0
2019-02-04T00:43:31.485Z,0
2019-02-04T00:44:32.867Z,0
2019-02-04T00:45:34.272Z,0
2019-02-04T00:46:35.683Z,0
2019-02-04T00:47:37.177Z,0
2019-02-04T00:48:38.601Z,0
2019-02-04T00:49:39.996Z,0
2019-02-04T00:50:41.397Z,0
2019-02-04T00:51:42.756Z,0
2019-02-04T00:52:44.164Z,0
2019-02-04T00:53:45.556Z,0
2019-02-04T00:54:46.951Z,0
2019-02-04T00:55:48.356Z,0
2019-02-04T00:56:49.764Z,0
2019-02-04T00:57:51.165Z,0
2019-02-04T00:58:52.560Z,0
2019-02-04T00:59:53.964Z,0
2019-02-04T01:00:55.371Z,0
2019-02-04T01:01:56.727Z,0
2019-02-04T01:02:58.178Z,0
2019-02-04T01:03:59.590Z,0
2019-02-04T01:05:00.989Z,0
2019-02-04T01:06:02.384Z,0
2019-02-04T01:07:03.795Z,0
2019-02-04T01:08:05.201Z,0
2019-02-04T01:09:06.593Z,0
2019-02-04T01:10:08.002Z,0
2019-02-04T01:11:09.353Z,0
2019-02-04T01:12:10.762Z,0
2019-02-04T01:13:12.159Z,0
2019-02-04T01:14:13.577Z,0
2019-02-04T01:15:14.982Z,0
2019-02-04T01:16:16.367Z,0
2019-02-04T01:17:17.772Z,0
2019-02-04T01:18:19.166Z,0
2019-02-04T01:19:20.556Z,0
2019-02-04T01:20:21.996Z,0
2019-02-04T01:21:23.393Z,0
2019-02-04T01:22:24.798Z,0
2019-02-04T01:23:26.194Z,0
2019-02-04T01:24:27.594Z,0
2019-02-04T01:25:29.000Z,0
2019-02-04T01:26:30.396Z,0
2019-02-04T01:27:31.818Z,0
2019-02-04T01:28:33.224Z,0
2019-02-04T01:29:34.697Z,0
2019-02-04T01:30:35.989Z,0
2019-02-04T01:31:37.373Z,0
2019-02-04T01:32:38.792Z,0
2019-02-04T01:33:40.193Z,0
2019-02-04T01:34:41.591Z,0
2019-02-04T01:35:42.987Z,0
2019-02-04T01:36:44.390Z,0
2019-02-04T01:37:45.806Z,0
2019-02-04T01:38:47.205Z,0
2019-02-04T01:39:48.597Z,0
2019-02-04T01:40:49.973Z,0
2019-02-04T01:41:51.367Z,0
2019-02-04T01:42:52.773Z,0
2019-02-04T01:43:54.168Z,0
2019-02-04T01:44:55.575Z,0
2019-02-04T01:45:56.965Z,0
2019-02-04T01:46:58.359Z,0
2019-02-04T01:47:59.762Z,0
2019-02-04T01:49:01.167Z,0
2019-02-04T01:50:02.530Z,0
2019-02-04T01:51:03.932Z,0
2019-02-04T01:52:05.336Z,0
2019-02-04T01:53:06.734Z,0
2019-02-04T01:54:08.145Z,0
2019-02-04T01:55:09.544Z,0
2019-02-04T01:56:10.942Z,0
2019-02-04T01:57:12.350Z,0
2019-02-04T01:58:13.741Z,0
2019-02-04T01:59:15.160Z,0
2019-02-04T02:00:16.562Z,0
2019-02-04T02:01:17.963Z,0
2019-02-04T02:02:19.379Z,0
2019-02-04T02:03:20.785Z,0
2019-02-04T02:04:22.215Z,0
2019-02-04T02:05:23.615Z,0
2019-02-04T02:06:25.024Z,0
2019-02-04T02:07:26.397Z,0
2019-02-04T02:08:27.793Z,0
2019-02-04T02:09:29.153Z,0
2019-02-04T02:10:30.553Z,0
2019-02-04T02:11:31.944Z,0
2019-02-04T02:12:33.320Z,0
2019-02-04T02:13:34.730Z,0
2019-02-04T02:14:36.121Z,0
2019-02-04T02:15:37.523Z,0
2019-02-04T02:16:38.923Z,0
2019-02-04T02:17:40.324Z,0
2019-02-04T02:18:41.720Z,0
2019-02-04T02:19:43.128Z,0
2019-02-04T02:20:44.534Z,0
2019-02-04T02:21:45.938Z,0
2019-02-04T02:22:47.335Z,0
2019-02-04T02:23:48.731Z,0
2019-02-04T02:24:50.116Z,0
2019-02-04T02:25:51.531Z,0
2019-02-04T02:26:52.929Z,0
2019-02-04T02:27:54.333Z,0
2019-02-04T02:28:55.694Z,0
2019-02-04T02:29:57.099Z,0
2019-02-04T02:30:58.491Z,0
2019-02-04T02:31:59.887Z,0
2019-02-04T02:33:01.297Z,0
2019-02-04T02:34:02.680Z,0
2019-02-04T02:35:04.091Z,0
2019-02-04T02:36:05.490Z,0
2019-02-04T02:37:06.886Z,0
2019-02-04T02:38:08.335Z,0
2019-02-04T02:39:09.615Z,0
2019-02-04T02:40:11.011Z,0
2019-02-04T02:41:12.375Z,0
2019-02-04T02:42:13.780Z,0
2019-02-04T02:43:15.196Z,0
2019-02-04T02:44:16.592Z,0
2019-02-04T02:45:17.992Z,0
2019-02-04T02:46:19.378Z,0
2019-02-04T02:47:20.755Z,0
2019-02-04T02:48:22.146Z,0
2019-02-04T02:49:23.545Z,0
2019-02-04T02:50:24.934Z,0
2019-02-04T02:51:26.332Z,0
2019-02-04T02:52:27.734Z,0
2019-02-04T02:53:29.128Z,0
2019-02-04T02:54:30.526Z,0
2019-02-04T02:55:31.921Z,0
2019-02-04T02:56:33.315Z,0
2019-02-04T02:57:34.681Z,0
2019-02-04T02:58:36.087Z,0
2019-02-04T02:59:37.497Z,0
2019-02-04T03:00:38.891Z,0
2019-02-04T03:01:40.309Z,0
2019-02-04T03:02:41.711Z,0
2019-02-04T03:03:43.107Z,0
2019-02-04T03:04:44.516Z,0
2019-02-04T03:05:46.027Z,0
2019-02-04T03:06:47.275Z,0
2019-02-04T03:07:48.671Z,0
2019-02-04T03:08:50.083Z,0
2019-02-04T03:09:51.479Z,0
2019-02-04T03:10:52.880Z,0
2019-02-04T03:11:54.266Z,0
2019-02-04T03:12:55.665Z,0
2019-02-04T03:13:57.059Z,0
2019-02-04T03:14:58.448Z,0
2019-02-04T03:15:59.810Z,0
2019-02-04T03:17:01.208Z,0
2019-02-04T03:18:02.602Z,0
2019-02-04T03:19:04.000Z,0
2019-02-04T03:20:05.396Z,0
2019-02-04T03:21:06.800Z,0
2019-02-04T03:22:08.220Z,0
2019-02-04T03:23:09.609Z,0
2019-02-04T03:24:11.006Z,0
2019-02-04T03:25:12.429Z,0
2019-02-04T03:26:13.778Z,0
2019-02-04T03:27:15.187Z,0
2019-02-04T03:28:16.605Z,0
2019-02-04T03:29:18.008Z,0
2019-02-04T03:30:19.421Z,0
2019-02-04T03:31:20.877Z,0
2019-02-04T03:32:22.211Z,0
2019-02-04T03:33:23.966Z,0
2019-02-04T03:34:24.993Z,0
2019-02-04T03:35:26.412Z,0
2019-02-04T03:36:27.797Z,0
2019-02-04T03:37:29.193Z,0
2019-02-04T03:38:30.614Z,0
2019-02-04T03:39:32.010Z,0
2019-02-04T03:40:33.418Z,0
2019-02-04T03:41:34.818Z,0
2019-02-04T03:42:36.212Z,0
2019-02-04T03:43:37.608Z,0
2019-02-04T03:44:39.014Z,0
2019-02-04T03:45:40.384Z,0
2019-02-04T03:46:41.779Z,0
2019-02-04T03:47:43.177Z,0
2019-02-04T03:48:44.584Z,0
2019-02-04T03:49:45.983Z,0
2019-02-04T03:50:47.390Z,0
2019-02-04T03:51:48.784Z,0
2019-02-04T03:52:50.187Z,0
2019-02-04T03:53:51.583Z,0
2019-02-04T03:54:52.943Z,0
2019-02-04T03:55:54.333Z,0
2019-02-04T03:56:55.747Z,0
2019-02-04T03:57:57.137Z,0
2019-02-04T03:58:58.541Z,0
2019-02-04T03:59:59.941Z,0
2019-02-04T04:01:01.367Z,0
2019-02-04T04:02:02.769Z,0
2019-02-04T04:03:04.169Z,0
2019-02-04T04:04:05.566Z,0
2019-02-04T04:05:06.930Z,0
2019-02-04T04:06:08.336Z,0
2019-02-04T04:07:09.735Z,0
2019-02-04T04:08:11.137Z,0
2019-02-04T04:09:12.534Z,0
2019-02-04T04:10:13.950Z,0
2019-02-04T04:11:15.336Z,0
2019-02-04T04:12:16.740Z,0
2019-02-04T04:13:18.142Z,0
2019-02-04T04:14:19.506Z,0
2019-02-04T04:15:20.900Z,0
2019-02-04T04:16:22.301Z,0
2019-02-04T04:17:23.708Z,0
2019-02-04T04:18:25.104Z,0
2019-02-04T04:19:26.511Z,0
2019-02-04T04:20:27.906Z,0
2019-02-04T04:21:29.313Z,0
2019-02-04T04:22:30.711Z,0
2019-02-04T04:23:32.105Z,0
2019-02-04T04:24:33.463Z,0
2019-02-04T04:25:34.869Z,0
2019-02-04T04:26:36.258Z,0
2019-02-04T04:27:37.653Z,0
2019-02-04T04:28:39.063Z,0
2019-02-04T04:29:40.460Z,0
2019-02-04T04:30:41.985Z,0
2019-02-04T04:31:43.231Z,0
2019-02-04T04:32:44.640Z,0
2019-02-04T04:33:45.994Z,0
2019-02-04T04:34:47.398Z,0
2019-02-04T04:35:48.798Z,0
2019-02-04T04:36:50.204Z,0
2019-02-04T04:37:51.616Z,0
2019-02-04T04:38:53.020Z,0
2019-02-04T04:39:54.418Z,0
2019-02-04T04:40:55.832Z,0
2019-02-04T04:41:57.227Z,0
2019-02-04T04:42:58.661Z,0
2019-02-04T04:44:00.060Z,0
2019-02-04T04:45:01.447Z,0
2019-02-04T04:46:02.850Z,0
2019-02-04T04:47:04.246Z,0
2019-02-04T04:48:05.647Z,0
2019-02-04T04:49:07.053Z,0
2019-02-04T04:50:08.459Z,0
2019-02-04T04:51:09.857Z,0
2019-02-04T04:52:11.251Z,0
2019-02-04T04:53:12.623Z,0
2019-02-04T04:54:14.020Z,0
2019-02-04T04:55:15.421Z,0
2019-02-04T04:56:16.822Z,0
2019-02-04T04:57:18.223Z,0
2019-02-04T04:58:19.677Z,0
2019-02-04T04:59:21.074Z,0
2019-02-04T05:00:22.487Z,0
2019-02-04T05:01:23.931Z,0
2019-02-04T05:02:25.294Z,0
2019-02-04T05:03:26.700Z,0
2019-02-04T05:04:28.092Z,0
2019-02-04T05:05:29.493Z,0
2019-02-04T05:06:30.910Z,0
2019-02-04T05:07:32.304Z,0
2019-02-04T05:08:33.706Z,0
2019-02-04T05:09:35.102Z,0
2019-02-04T05:10:36.517Z,0
2019-02-04T05:11:37.877Z,0
2019-02-04T05:12:39.282Z,0
2019-02-04T05:13:40.670Z,0
2019-02-04T05:14:42.066Z,0
2019-02-04T05:15:43.533Z,0
2019-02-04T05:16:44.941Z,0
2019-02-04T05:17:46.341Z,0
2019-02-04T05:18:47.731Z,0
2019-02-04T05:19:49.122Z,0
2019-02-04T05:20:50.523Z,0
2019-02-04T05:21:51.896Z,0
2019-02-04T05:22:53.289Z,0
2019-02-04T05:23:54.685Z,0
2019-02-04T05:24:56.088Z,0
2019-02-04T05:25:57.485Z,0
2019-02-04T05:26:58.879Z,0
2019-02-04T05:28:00.268Z,0
2019-02-04T05:29:01.685Z,0
2019-02-04T05:30:03.093Z,0
2019-02-04T05:31:04.506Z,0
2019-02-04T05:32:05.905Z,0
2019-02-04T05:33:07.306Z,0
2019-02-04T05:34:08.707Z,0
2019-02-04T05:35:10.110Z,0
2019-02-04T05:36:11.518Z,0
2019-02-04T05:37:12.908Z,0
2019-02-04T05:38:14.310Z,0
2019-02-04T05:39:15.821Z,0
2019-02-04T05:40:17.069Z,0
2019-02-04T05:41:18.425Z,0
2019-02-04T05:42:19.857Z,0
2019-02-04T05:43:21.262Z,0
2019-02-04T05:44:22.661Z,0
2019-02-04T05:45:24.063Z,0
2019-02-04T05:46:25.456Z,0
2019-02-04T05:47:26.861Z,0
2019-02-04T05:48:28.261Z,0
2019-02-04T05:49:29.673Z,0
2019-02-04T05:50:31.031Z,0
2019-02-04T05:51:32.465Z,0
2019-02-04T05:52:33.851Z,0
2019-02-04T05:53:35.249Z,0
2019-02-04T05:54:36.647Z,0
2019-02-04T05:55:38.053Z,0
2019-02-04T05:56:39.451Z,0
2019-02-04T05:57:40.855Z,0
2019-02-04T05:58:42.249Z,0
2019-02-04T05:59:43.646Z,0
2019-02-04T06:00:45.050Z,0
2019-02-04T06:01:46.460Z,0
2019-02-04T06:02:47.858Z,0
2019-02-04T06:03:49.261Z,0
2019-02-04T06:04:50.660Z,0
2019-02-04T06:05:52.058Z,0
2019-02-04T06:06:53.458Z,0
2019-02-04T06:07:54.870Z,0
2019-02-04T06:08:56.260Z,0
2019-02-04T06:09:57.628Z,0
2019-02-04T06:10:59.036Z,0
2019-02-04T06:12:00.451Z,0
2019-02-04T06:13:01.840Z,0
2019-02-04T06:14:03.236Z,0
2019-02-04T06:15:04.653Z,0
2019-02-04T06:16:06.033Z,0
2019-02-04T06:17:07.441Z,0
2019-02-04T06:18:08.840Z,0
2019-02-04T06:19:10.205Z,0
2019-02-04T06:20:11.621Z,0
2019-02-04T06:21:13.096Z,0
2019-02-04T06:22:14.382Z,0
2019-02-04T06:23:15.790Z,0
2019-02-04T06:24:17.179Z,0
2019-02-04T06:25:18.609Z,0
2019-02-04T06:26:20.003Z,0
2019-02-04T06:27:21.403Z,0
2019-02-04T06:28:22.802Z,0
2019-02-04T06:29:24.164Z,0
2019-02-04T06:30:25.564Z,0
2019-02-04T06:31:26.966Z,0
2019-02-04T06:32:28.371Z,0
2019-02-04T06:33:29.782Z,0
2019-02-04T06:34:31.170Z,0
2019-02-04T06:35:32.613Z,0
2019-02-04T06:36:34.008Z,0
2019-02-04T06:37:35.408Z,0
2019-02-04T06:38:36.772Z,0
2019-02-04T06:39:38.178Z,0
2019-02-04T06:40:39.578Z,0
2019-02-04T06:41:40.972Z,0
2019-02-04T06:42:42.407Z,0
2019-02-04T06:43:43.801Z,0
2019-02-04T06:44:45.203Z,0
2019-02-04T06:45:46.639Z,0
2019-02-04T06:46:48.022Z,0
2019-02-04T06:47:49.383Z,0
2019-02-04T06:48:50.799Z,0
2019-02-04T06:49:52.203Z,0
2019-02-04T06:50:53.781Z,0
2019-02-04T06:51:55.010Z,0
2019-02-04T06:52:56.428Z,0
2019-02-04T06:53:57.827Z,0
2019-02-04T06:54:59.231Z,0
2019-02-04T06:56:00.630Z,5
2019-02-04T06:57:02.030Z,5
2019-02-04T06:58:03.398Z,5
2019-02-04T06:59:04.792Z,5
2019-02-04T07:00:06.196Z,5
2019-02-04T07:01:07.608Z,5
2019-02-04T07:02:09.014Z,5
2019-02-04T07:03:10.415Z,5
2019-02-04T07:04:11.832Z,5
2019-02-04T07:05:13.223Z,5
2019-02-04T07:06:14.630Z,5
2019-02-04T07:07:16.000Z,5
2019-02-04T07:08:17.401Z,5
2019-02-04T07:09:18.808Z,5
2019-02-04T07:10:20.218Z,10
2019-02-04T07:11:21.739Z,10
2019-02-04T07:12:23.142Z,10
2019-02-04T07:13:24.545Z,10
2019-02-04T07:14:25.944Z,10
2019-02-04T07:15:27.345Z,10
2019-02-04T07:16:28.715Z,10
2019-02-04T07:17:30.109Z,15
2019-02-04T07:18:31.517Z,10
2019-02-04T07:19:32.913Z,10
2019-02-04T07:20:34.321Z,10
2019-02-04T07:21:35.724Z,10
2019-02-04T07:22:37.129Z,15
2019-02-04T07:23:38.531Z,15
2019-02-04T07:24:42.779Z,15
2019-02-04T07:25:41.302Z,15
2019-02-04T07:26:42.724Z,15
2019-02-04T07:27:44.127Z,15
2019-02-04T07:28:45.523Z,20
2019-02-04T07:29:46.922Z,15
2019-02-04T07:30:48.394Z,20
2019-02-04T07:31:49.794Z,20
2019-02-04T07:32:51.268Z,25
2019-02-04T07:33:52.688Z,25
2019-02-04T07:34:54.099Z,20
2019-02-04T07:35:55.506Z,20
2019-02-04T07:36:56.909Z,25
2019-02-04T07:37:58.316Z,30
2019-02-04T07:38:59.726Z,10
2019-02-04T07:40:01.127Z,20
2019-02-04T07:41:02.527Z,25
2019-02-04T07:42:03.936Z,25
2019-02-04T07:43:05.347Z,25
2019-02-04T07:44:06.715Z,25
2019-02-04T07:45:08.114Z,25
2019-02-04T07:46:09.511Z,25
2019-02-04T07:47:10.921Z,40
2019-02-04T07:48:12.323Z,40
2019-02-04T07:49:13.719Z,35
2019-02-04T07:50:15.135Z,25
2019-02-04T07:51:16.539Z,45
2019-02-04T07:52:17.946Z,60
2019-02-04T07:53:19.348Z,40
2019-02-04T07:54:20.702Z,35
2019-02-04T07:55:22.114Z,35
2019-02-04T07:56:23.514Z,45
2019-02-04T07:57:24.942Z,45
2019-02-04T07:58:26.349Z,50
2019-02-04T07:59:27.810Z,55
2019-02-04T08:00:29.202Z,55
2019-02-04T08:01:30.596Z,55
2019-02-04T08:02:31.992Z,60
2019-02-04T08:03:33.349Z,50
2019-02-04T08:04:34.791Z,60
2019-02-04T08:05:36.208Z,65
2019-02-04T08:06:37.596Z,65
2019-02-04T08:07:39.001Z,65
2019-02-04T08:08:40.456Z,65
2019-02-04T08:09:41.878Z,50
2019-02-04T08:10:43.899Z,50
2019-02-04T08:11:44.699Z,55
2019-02-04T08:12:46.064Z,50
2019-02-04T08:13:47.499Z,50
2019-02-04T08:14:48.914Z,70
2019-02-04T08:15:50.269Z,75
2019-02-04T08:16:51.661Z,70
2019-02-04T08:17:53.073Z,65
2019-02-04T08:18:54.477Z,65
2019-02-04T08:19:55.890Z,90
2019-02-04T08:20:57.430Z,100
2019-02-04T08:21:58.682Z,85
2019-02-04T08:23:00.056Z,105
2019-02-04T08:24:01.474Z,100
2019-02-04T08:25:02.877Z,115
2019-02-04T08:26:04.306Z,110
2019-02-04T08:27:05.705Z,120
2019-02-04T08:28:07.465Z,120
2019-02-04T08:29:08.865Z,125
2019-02-04T08:30:10.271Z,125
2019-02-04T08:31:11.680Z,120
2019-02-04T08:32:13.053Z,130
2019-02-04T08:33:14.464Z,140
2019-02-04T08:34:15.866Z,100
2019-02-04T08:35:17.279Z,115
2019-02-04T08:36:18.681Z,110
2019-02-04T08:37:20.086Z,125
2019-02-04T08:38:21.491Z,150
2019-02-04T08:39:22.889Z,165
2019-02-04T08:40:24.298Z,115
2019-02-04T08:41:25.821Z,95
2019-02-04T08:42:27.267Z,100
2019-02-04T08:43:28.674Z,95
2019-02-04T08:44:30.084Z,115
2019-02-04T08:45:31.485Z,125
2019-02-04T08:46:32.886Z,125
2019-02-04T08:47:34.284Z,125
2019-02-04T08:48:35.687Z,90
2019-02-04T08:49:37.092Z,145
2019-02-04T08:50:38.537Z,155
2019-02-04T08:51:39.858Z,120
2019-02-04T08:52:41.275Z,135
2019-02-04T08:53:42.664Z,125
2019-02-04T08:54:44.062Z,125
2019-02-04T08:55:45.468Z,145
2019-02-04T08:56:46.864Z,140
2019-02-04T08:57:48.287Z,135
2019-02-04T08:58:49.702Z,170
2019-02-04T08:59:51.056Z,165
2019-02-04T09:00:52.464Z,155
2019-02-04T09:01:53.867Z,135
2019-02-04T09:02:55.346Z,145
2019-02-04T09:03:56.621Z,235
2019-02-04T09:04:58.035Z,220
2019-02-04T09:05:59.431Z,300
2019-02-04T09:07:00.840Z,240
2019-02-04T09:08:02.380Z,280
2019-02-04T11:50:54.093Z,190
2019-02-04T11:51:55.443Z,190
2019-02-04T11:52:56.874Z,195
2019-02-04T11:53:58.305Z,195
2019-02-04T11:54:59.723Z,190
2019-02-04T11:56:01.154Z,180
2019-02-04T11:57:02.581Z,180
2019-02-04T11:58:03.995Z,185
2019-02-04T11:59:05.412Z,180
2019-02-04T12:00:06.787Z,175
2019-02-04T12:01:08.196Z,180
2019-02-04T12:02:09.598Z,180
2019-02-04T12:03:11.007Z,180
2019-02-04T12:04:12.412Z,175
2019-02-04T12:05:13.812Z,170
2019-02-04T12:06:17.472Z,165
2019-02-04T12:07:16.592Z,150
2019-02-04T12:08:17.995Z,155
2019-02-04T12:09:19.375Z,150
2019-02-04T12:10:20.810Z,150
2019-02-04T12:11:22.254Z,145
2019-02-04T12:12:23.679Z,150
2019-02-04T12:13:25.178Z,150
2019-02-04T12:14:26.611Z,145
2019-02-04T12:15:28.050Z,155
2019-02-04T12:16:29.468Z,145
2019-02-04T12:17:30.877Z,140
2019-02-04T12:18:32.298Z,140
2019-02-04T12:19:33.668Z,145
2019-02-04T12:20:35.089Z,140
2019-02-04T12:21:36.505Z,140
2019-02-04T12:22:37.933Z,135
2019-02-04T12:23:39.361Z,135
2019-02-04T12:24:40.775Z,130
2019-02-04T12:25:42.225Z,130
2019-02-04T12:26:43.635Z,130
2019-02-04T12:27:45.045Z,135
2019-02-04T12:28:46.443Z,130
2019-02-04T12:29:47.881Z,130
2019-02-04T12:30:49.282Z,130
2019-02-04T12:31:50.691Z,130
2019-02-04T12:32:52.120Z,115
2019-02-04T12:33:53.527Z,115
2019-02-04T12:34:54.941Z,115
2019-02-04T12:35:56.350Z,115
2019-02-04T12:36:57.763Z,130
2019-02-04T12:37:59.143Z,125
2019-02-04T12:39:00.565Z,130
2019-02-04T12:40:01.985Z,120
2019-02-04T12:41:03.407Z,125
2019-02-04T12:42:04.812Z,120
2019-02-04T12:43:06.228Z,120
2019-02-04T12:44:07.663Z,120
2019-02-04T12:45:09.069Z,115
2019-02-04T12:46:10.476Z,120
2019-02-04T12:47:11.843Z,115
2019-02-04T12:48:13.259Z,115
2019-02-04T12:49:14.660Z,115
2019-02-04T12:50:16.077Z,110
2019-02-04T12:51:17.494Z,115
2019-02-04T12:52:18.913Z,120
2019-02-04T12:53:20.314Z,120
2019-02-04T12:54:21.733Z,120
2019-02-04T12:55:23.143Z,120
2019-02-04T12:56:24.555Z,125
2019-02-04T12:57:25.918Z,120
2019-02-04T12:58:27.432Z,125
2019-02-04T12:59:28.713Z,120
2019-02-04T13:00:30.115Z,120
2019-02-04T13:01:31.524Z,115
2019-02-04T13:02:32.927Z,115
2019-02-04T13:03:34.333Z,115
2019-02-04T13:04:35.746Z,115
2019-02-04T13:05:37.166Z,110
2019-02-04T13:06:38.547Z,110
2019-02-04T13:07:39.972Z,110
2019-02-04T13:08:41.374Z,105
2019-02-04T13:09:42.781Z,105
2019-02-04T13:10:44.200Z,105
2019-02-04T13:11:45.614Z,105
2019-02-04T13:12:47.042Z,105
2019-02-04T13:13:48.458Z,100
2019-02-04T13:14:49.879Z,100
2019-02-04T13:15:51.231Z,100
2019-02-04T13:16:52.645Z,100
2019-02-04T13:17:54.053Z,100
2019-02-04T13:18:55.447Z,100
2019-02-04T13:19:56.884Z,100
2019-02-04T13:20:58.271Z,100
2019-02-04T13:21:59.677Z,95
2019-02-04T13:23:01.094Z,95
2019-02-04T13:24:02.495Z,95
2019-02-04T13:25:03.903Z,95
2019-02-04T13:26:05.327Z,95
2019-02-04T13:27:06.737Z,90
2019-02-04T13:28:08.141Z,90
2019-02-04T13:29:09.539Z,90
2019-02-04T13:30:10.955Z,90
2019-02-04T13:31:12.361Z,90
2019-02-04T13:32:14.027Z,90
2019-02-04T13:33:15.442Z,90
2019-02-04T13:34:16.864Z,90
2019-02-04T13:35:18.246Z,90
2019-02-04T13:36:19.646Z,90
2019-02-04T13:37:21.048Z,90
2019-02-04T13:38:22.456Z,85
2019-02-04T13:39:23.866Z,85
2019-02-04T13:40:25.272Z,85
2019-02-04T13:41:26.683Z,85
2019-02-04T13:42:28.128Z,85
2019-02-04T13:43:29.546Z,90
2019-02-04T13:44:30.931Z,90
2019-02-04T13:45:32.342Z,90
2019-02-04T13:46:33.741Z,90
2019-02-04T13:47:35.150Z,90
2019-02-04T13:48:36.544Z,90
2019-02-04T13:49:37.948Z,95
2019-02-04T13:50:39.369Z,90
2019-02-04T13:51:40.777Z,90
2019-02-04T13:52:42.232Z,90
2019-02-04T13:53:43.666Z,85
2019-02-04T13:54:45.071Z,85
2019-02-04T13:55:46.483Z,85
2019-02-04T13:56:47.883Z,85
2019-02-04T13:57:49.282Z,85
2019-02-04T13:58:50.700Z,80
2019-02-04T13:59:52.093Z,80
2019-02-04T14:00:53.515Z,80
2019-02-04T14:01:54.907Z,80
2019-02-04T14:02:59.461Z,80
2019-02-04T14:03:57.675Z,75
2019-02-04T14:04:59.118Z,75
2019-02-04T14:06:00.533Z,75
2019-02-04T14:07:01.962Z,75
2019-02-04T14:08:03.373Z,75
2019-02-04T14:09:04.812Z,70
2019-02-04T14:10:06.222Z,70
2019-02-04T14:11:07.635Z,70
2019-02-04T14:12:09.086Z,70
2019-02-04T14:13:10.533Z,70
2019-02-04T14:14:11.900Z,70
2019-02-04T14:15:13.344Z,70
2019-02-04T14:16:14.770Z,70
2019-02-04T14:17:16.190Z,65
2019-02-04T14:18:17.601Z,65
2019-02-04T14:19:19.080Z,65
2019-02-04T14:20:20.493Z,65
2019-02-04T14:21:21.937Z,65
2019-02-04T14:22:23.369Z,65
2019-02-04T14:23:27.326Z,60
2019-02-04T14:24:26.102Z,60
2019-02-04T14:25:27.515Z,60
2019-02-04T14:26:28.930Z,60
2019-02-04T14:27:30.360Z,60
2019-02-04T14:28:31.784Z,60
2019-02-04T14:29:33.848Z,60
2019-02-04T14:30:34.627Z,55
2019-02-04T14:31:36.059Z,55
2019-02-04T14:32:37.477Z,55
2019-02-04T14:33:38.845Z,55
2019-02-04T14:34:40.270Z,55
2019-02-04T14:35:41.707Z,55
2019-02-04T14:36:43.146Z,55
2019-02-04T14:37:45.116Z,55
2019-02-04T14:38:45.950Z,50
2019-02-04T14:39:47.369Z,50
2019-02-04T14:40:48.792Z,50
2019-02-04T14:41:50.191Z,50
2019-02-04T14:42:51.566Z,50
2019-02-04T14:43:52.978Z,50
2019-02-04T14:44:54.390Z,45
2019-02-04T14:45:55.801Z,45
2019-02-04T14:46:57.217Z,45
2019-02-04T14:48:04.168Z,45
2019-02-04T14:48:59.993Z,45
2019-02-04T14:50:01.402Z,45
2019-02-04T14:51:02.813Z,45
2019-02-04T14:52:04.205Z,45
2019-02-04T14:53:05.592Z,45
2019-02-04T14:54:06.994Z,45
2019-02-04T14:55:08.406Z,40
2019-02-04T14:56:09.808Z,40
2019-02-04T14:57:11.210Z,40
2019-02-04T14:58:12.611Z,40
2019-02-04T14:59:14.016Z,40
2019-02-04T15:00:15.431Z,35
2019-02-04T15:01:16.837Z,35
2019-02-04T15:02:18.240Z,35
2019-02-04T15:03:20.277Z,35
2019-02-04T15:04:21.700Z,35
2019-02-04T15:05:23.128Z,30
2019-02-04T15:06:24.546Z,30
2019-02-04T15:07:25.947Z,30
2019-02-04T15:08:33.435Z,30
2019-02-04T15:09:28.706Z,30
2019-02-04T15:10:30.106Z,25
2019-02-04T15:11:31.513Z,25
2019-02-04T15:12:32.912Z,25
2019-02-04T15:13:34.290Z,25
2019-02-04T15:14:35.688Z,25
2019-02-04T15:15:37.110Z,20
2019-02-04T15:16:38.533Z,20
2019-02-04T15:17:39.938Z,20
2019-02-04T15:18:41.342Z,20
2019-02-04T15:19:42.734Z,20
2019-02-04T15:20:44.150Z,20
2019-02-04T15:21:45.544Z,20
2019-02-04T15:22:46.946Z,15
2019-02-04T15:23:48.350Z,15
2019-02-04T15:24:49.810Z,15
2019-02-04T15:25:51.282Z,15
2019-02-04T15:26:52.699Z,15
2019-02-04T15:27:54.040Z,15
2019-02-04T15:28:55.437Z,15
2019-02-04T15:29:56.842Z,15
2019-02-04T15:30:58.255Z,10
2019-02-04T15:31:59.646Z,10
2019-02-04T15:33:01.002Z,10
2019-02-04T15:34:02.408Z,10
2019-02-04T15:35:04.999Z,10
2019-02-04T15:36:05.179Z,10
2019-02-04T15:37:06.580Z,10
2019-02-04T15:38:07.984Z,10
2019-02-04T15:39:09.396Z,10
2019-02-04T15:40:10.797Z,5
2019-02-04T15:41:12.193Z,5
2019-02-04T15:42:13.591Z,5
2019-02-04T15:43:14.951Z,5
2019-02-04T15:44:16.371Z,5
2019-02-04T15:45:17.791Z,5
2019-02-04T15:46:19.185Z,5
2019-02-04T15:47:20.594Z,5
2019-02-04T15:48:21.995Z,5
2019-02-04T15:49:23.383Z,5
2019-02-04T15:50:24.787Z,5
2019-02-04T15:51:26.204Z,0
2019-02-04T15:52:27.561Z,0
2019-02-04T15:53:29.621Z,0
2019-02-04T15:54:30.331Z,0
2019-02-04T15:55:31.732Z,0
2019-02-04T15:56:33.138Z,0
2019-02-04T15:57:34.590Z,0
2019-02-04T15:58:35.896Z,0
2019-02-04T15:59:37.288Z,0
2019-02-04T16:00:38.689Z,0
2019-02-04T16:01:40.101Z,0
2019-02-04T16:02:41.500Z,0
2019-02-04T16:03:42.912Z,0
2019-02-04T16:04:44.324Z,0
2019-02-04T16:05:45.821Z,0
2019-02-04T16:06:47.089Z,0
2019-02-04T16:07:48.497Z,0
2019-02-04T16:08:49.899Z,0
2019-02-04T16:09:51.286Z,0
2019-02-04T16:10:52.699Z,0
2019-02-04T16:11:54.053Z,0
2019-02-04T16:12:55.445Z,0
2019-02-04T16:13:56.850Z,0
2019-02-04T16:14:58.243Z,0
2019-02-04T16:15:59.655Z,0
2019-02-04T16:17:01.062Z,0
2019-02-04T16:18:02.450Z,0
2019-02-04T16:19:03.862Z,0
2019-02-04T16:20:05.261Z,0
2019-02-04T16:21:06.634Z,0
2019-02-04T16:22:08.032Z,0
2019-02-04T16:23:09.438Z,0
2019-02-04T16:24:10.842Z,0
2019-02-04T16:25:12.245Z,0
2019-02-04T16:26:15.294Z,0
2019-02-04T16:27:14.991Z,0
2019-02-04T16:28:16.390Z,0
2019-02-04T16:29:17.777Z,0
2019-02-04T16:30:19.154Z,0
2019-02-04T16:31:20.551Z,0
2019-02-04T16:32:21.950Z,0
2019-02-04T16:33:23.354Z,0
2019-02-04T16:34:24.788Z,0
2019-02-04T16:35:26.183Z,0
2019-02-04T16:36:27.576Z,0
2019-02-04T16:37:28.983Z,0
2019-02-04T16:38:30.385Z,0
2019-02-04T16:39:31.741Z,0
2019-02-04T16:40:33.157Z,0
2019-02-04T16:41:34.566Z,0
2019-02-04T16:42:35.969Z,0
2019-02-04T16:43:37.372Z,0
2019-02-04T16:44:38.778Z,0
2019-02-04T16:45:40.181Z,0
2019-02-04T16:46:41.623Z,0
2019-02-04T16:47:43.020Z,0
2019-02-04T16:48:44.376Z,0
2019-02-04T16:49:45.779Z,0
2019-02-04T16:50:58.894Z,0
2019-02-04T16:51:48.536Z,0
2019-02-04T16:52:49.966Z,0
2019-02-04T16:53:51.356Z,0
2019-02-04T16:54:52.768Z,0
2019-02-04T16:55:54.218Z,0
2019-02-04T16:56:55.619Z,0
2019-02-04T16:57:57.020Z,0
2019-02-04T16:58:58.380Z,0
2019-02-04T16:59:59.769Z,0
2019-02-04T17:01:01.178Z,0
2019-02-04T17:02:02.585Z,0
2019-02-04T17:03:03.973Z,0
2019-02-04T17:04:05.396Z,0
2019-02-04T17:05:06.779Z,0
2019-02-04T17:06:08.183Z,0
2019-02-04T17:07:09.575Z,0
2019-02-04T17:08:10.937Z,0
2019-02-04T17:09:12.359Z,0
2019-02-04T17:10:13.757Z,0
2019-02-04T17:11:15.153Z,0
2019-02-04T17:12:16.544Z,0
2019-02-04T17:13:17.937Z,0
2019-02-04T17:14:19.336Z,0
2019-02-04T17:15:20.733Z,0
2019-02-04T17:16:22.153Z,0
2019-02-04T17:17:23.514Z,0
2019-02-04T17:18:24.910Z,0
2019-02-04T17:19:26.307Z,0
2019-02-04T17:20:27.702Z,0
2019-02-04T17:21:29.092Z,0
2019-02-04T17:22:30.503Z,0
2019-02-04T17:23:31.894Z,0
2019-02-04T17:24:33.306Z,0
2019-02-04T17:25:34.710Z,0
2019-02-04T17:26:36.066Z,0
2019-02-04T17:27:37.457Z,0
2019-02-04T17:28:38.868Z,0
2019-02-04T17:29:40.267Z,0
2019-02-04T17:30:41.663Z,0
2019-02-04T17:31:43.055Z,0